Time;durP1;ratioP1;P1;durP2;ratioP2;P2;SDS_P1;SDS_P2;PMS_P1;PMS_P2;Temp;Humidity;BMP_temperature;BMP_pressure;BME280_temperature;BME280_humidity;BME280_pressure;Samples;Min_cycle;Max_cycle;Signal;HPM_P1;HPM_P2
2022/11/21 00:05:49;;;;;;;8.88;5.87;;;9.60;85.60;;;;;;11022878;32;20022;-71
2022/11/21 00:11:51;;;;;;;9.63;6.62;;;9.60;85.60;;;;;;11022540;32;20087;-71
2022/11/21 00:17:53;;;;;;;7.95;5.87;;;9.60;85.50;;;;;;11022346;32;20045;-71
2022/11/21 00:23:55;;;;;;;9.05;6.03;;;9.60;85.40;;;;;;11022042;32;20060;-71
2022/11/21 00:29:57;;;;;;;6.60;4.85;;;9.60;85.30;;;;;;11021816;32;20326;-71
2022/11/21 00:36:07;;;;;;;9.63;6.40;;;9.60;85.40;;;;;;11007758;32;20018;-71
2022/11/21 00:42:09;;;;;;;9.90;6.87;;;9.50;85.40;;;;;;11021417;32;20315;-72
2022/11/21 00:48:11;;;;;;;11.55;6.80;;;9.50;85.40;;;;;;11007604;32;20050;-74
2022/11/21 00:54:13;;;;;;;9.00;5.18;;;9.40;85.70;;;;;;11021167;32;20361;-74
2022/11/21 01:00:16;;;;;;;8.85;5.90;;;9.40;85.80;;;;;;11016749;32;20329;-74
2022/11/21 01:06:17;;;;;;;9.63;6.80;;;9.40;85.70;;;;;;11020579;32;20436;-74
2022/11/21 01:12:19;;;;;;;8.73;6.28;;;9.40;85.70;;;;;;11020396;32;20038;-74
2022/11/21 01:18:21;;;;;;;8.05;5.62;;;9.40;85.70;;;;;;11020164;32;20306;-74
2022/11/21 01:24:23;;;;;;;8.75;5.60;;;9.40;85.60;;;;;;11019945;32;20010;-74
2022/11/21 01:30:25;;;;;;;8.60;4.95;;;9.40;85.60;;;;;;11015368;32;20026;-74
2022/11/21 01:36:30;;;;;;;6.97;4.60;;;9.40;85.50;;;;;;11015192;32;20338;-74
2022/11/21 01:43:12;;;;;;;6.65;4.72;;;9.40;85.60;;;;;;11019291;32;20061;-74
2022/11/21 01:49:29;;;;;;;6.57;4.43;;;9.40;85.50;;;;;;10823552;32;20062;-73
2022/11/21 01:55:32;;;;;;;6.20;3.83;;;9.40;85.40;;;;;;10814597;32;20427;-74
2022/11/21 02:01:36;;;;;;;6.97;4.35;;;9.40;85.60;;;;;;10826927;32;20046;-73
2022/11/21 02:07:42;;;;;;;7.12;4.35;;;9.40;85.60;;;;;;10826600;32;20320;-73
2022/11/21 02:13:43;;;;;;;8.95;4.45;;;9.40;85.60;;;;;;10826313;32;20032;-73
2022/11/21 02:19:54;;;;;;;6.45;4.53;;;9.40;85.50;;;;;;10826281;32;20024;-71
2022/11/21 02:25:56;;;;;;;5.47;3.35;;;9.50;85.50;;;;;;11018038;32;20053;-71
2022/11/21 02:32:01;;;;;;;5.25;3.72;;;9.30;85.40;;;;;;11017705;32;20056;-71
2022/11/21 02:38:16;;;;;;;6.70;4.53;;;9.30;85.60;;;;;;11017734;32;20351;-71
2022/11/21 02:44:33;;;;;;;8.00;4.65;;;9.20;85.60;;;;;;11016135;32;20034;-71
2022/11/21 02:50:38;;;;;;;5.47;3.45;;;9.20;85.70;;;;;;11017550;32;20436;-71
2022/11/21 02:56:42;;;;;;;4.62;3.12;;;9.20;85.50;;;;;;11017662;32;20041;-71
2022/11/21 03:02:44;;;;;;;5.62;4.00;;;9.10;85.70;;;;;;11025172;32;20026;-71
2022/11/21 03:08:46;;;;;;;5.47;3.70;;;9.20;85.60;;;;;;11024768;32;20030;-71
2022/11/21 03:14:48;;;;;;;5.32;3.10;;;9.20;85.50;;;;;;11010938;32;20049;-71
2022/11/21 03:20:51;;;;;;;6.95;4.30;;;9.10;85.50;;;;;;11024326;32;20018;-71
2022/11/21 03:26:53;;;;;;;6.47;3.42;;;9.10;85.50;;;;;;11024165;32;20022;-72
2022/11/21 03:32:56;;;;;;;5.65;3.58;;;8.90;85.60;;;;;;11023978;32;20054;-72
2022/11/21 03:38:58;;;;;;;6.82;4.80;;;8.90;85.80;;;;;;11019503;32;20026;-72
2022/11/21 03:45:00;;;;;;;7.72;5.37;;;8.80;85.70;;;;;;11023449;32;20018;-72
2022/11/21 03:51:02;;;;;;;9.93;5.10;;;8.80;85.70;;;;;;11023163;32;20126;-72
2022/11/21 03:57:04;;;;;;;6.00;4.10;;;8.80;85.70;;;;;;11023099;32;20049;-72
2022/11/21 04:03:06;;;;;;;6.78;4.87;;;8.70;85.60;;;;;;11009395;32;20425;-72
2022/11/21 04:09:08;;;;;;;6.32;3.97;;;8.70;85.50;;;;;;11022008;32;20060;-74
2022/11/21 04:15:10;;;;;;;9.93;6.00;;;8.70;85.60;;;;;;11022450;32;20018;-74
2022/11/21 04:21:12;;;;;;;6.47;5.18;;;8.70;85.50;;;;;;11022275;32;20057;-74
2022/11/21 04:27:14;;;;;;;12.02;4.37;;;8.70;85.50;;;;;;11022028;32;20022;-74
2022/11/21 04:33:17;;;;;;;8.38;4.30;;;8.60;85.40;;;;;;11021900;32;20014;-74
2022/11/21 04:39:19;;;;;;;6.20;4.37;;;8.60;85.30;;;;;;11021715;32;20041;-74
2022/11/21 04:45:21;;;;;;;6.72;4.12;;;8.50;85.40;;;;;;11021361;32;20022;-74
2022/11/21 04:51:23;;;;;;;7.18;4.62;;;8.50;85.50;;;;;;11021090;32;20022;-74
2022/11/21 04:57:27;;;;;;;8.20;5.25;;;8.40;85.30;;;;;;11020915;32;20022;-74
2022/11/21 05:03:29;;;;;;;5.37;3.75;;;8.30;85.40;;;;;;11020811;32;20049;-74
2022/11/21 05:09:31;;;;;;;5.12;3.92;;;8.20;85.40;;;;;;11020496;32;20342;-74
2022/11/21 05:15:33;;;;;;;6.25;4.55;;;8.20;85.40;;;;;;11020386;32;20041;-74
2022/11/21 05:21:35;;;;;;;4.30;3.22;;;8.30;85.40;;;;;;11020019;32;20049;-72
2022/11/21 05:27:37;;;;;;;4.93;3.37;;;8.20;85.40;;;;;;11015591;32;20010;-72
2022/11/21 05:33:39;;;;;;;6.80;5.15;;;8.40;85.50;;;;;;11019555;32;20288;-74
2022/11/21 05:39:41;;;;;;;7.82;4.93;;;8.30;85.40;;;;;;11019518;32;20428;-74
2022/11/21 05:45:43;;;;;;;7.25;4.45;;;8.60;85.60;;;;;;11019132;32;20053;-74
2022/11/21 05:51:46;;;;;;;8.00;5.32;;;8.70;84.90;;;;;;11005516;32;20022;-74
2022/11/21 05:57:48;;;;;;;7.10;5.28;;;8.60;85.10;;;;;;11018700;32;20014;-74
2022/11/21 06:03:49;;;;;;;5.85;4.35;;;8.50;84.90;;;;;;11004961;32;20036;-74
2022/11/21 06:09:51;;;;;;;9.88;6.07;;;8.50;85.30;;;;;;11018301;32;20033;-72
2022/11/21 06:15:59;;;;;;;9.70;6.12;;;8.70;85.20;;;;;;11018170;32;20018;-72
2022/11/21 06:22:01;;;;;;;11.50;7.68;;;8.70;85.00;;;;;;11017356;32;20031;-72
2022/11/21 06:28:03;;;;;;;15.50;10.15;;;8.90;85.10;;;;;;11017921;32;20386;-72
2022/11/21 06:34:05;;;;;;;12.37;9.50;;;9.00;84.40;;;;;;11017361;32;20033;-72
2022/11/21 06:40:08;;;;;;;11.63;8.85;;;8.80;84.20;;;;;;11017690;32;20291;-72
2022/11/21 06:46:10;;;;;;;12.00;8.85;;;8.70;84.40;;;;;;10392462;26;19906877;-72
2022/11/21 06:52:34;;;;;;;15.20;12.60;;;8.90;84.20;;;;;;10900992;32;20089;-72
2022/11/21 06:59:05;;;;;;;11.18;8.02;;;9.10;83.90;;;;;;10900869;32;20023;-74
2022/11/21 07:05:07;;;;;;;10.55;7.55;;;9.20;83.60;;;;;;10882310;32;20481;-74
2022/11/21 07:11:14;;;;;;;11.07;8.18;;;9.20;83.40;;;;;;10902284;32;20050;-74
2022/11/21 07:17:16;;;;;;;15.35;10.20;;;9.30;83.10;;;;;;10955806;32;20027;-74
2022/11/21 07:23:19;;;;;;;12.45;9.23;;;9.40;83.10;;;;;;10977084;32;20072;-74
2022/11/21 07:29:21;;;;;;;16.73;9.90;;;9.40;82.90;;;;;;10978314;32;20057;-74
2022/11/21 07:35:23;;;;;;;15.02;10.70;;;9.50;82.80;;;;;;10978336;32;20081;-74
2022/11/21 07:41:25;;;;;;;12.82;9.98;;;9.50;83.00;;;;;;10978503;32;20395;-74
2022/11/21 07:47:28;;;;;;;14.10;10.30;;;9.50;82.70;;;;;;10969303;32;20022;-74
2022/11/21 07:53:30;;;;;;;11.15;7.90;;;9.30;83.50;;;;;;10980228;32;20014;-76
2022/11/21 07:59:33;;;;;;;12.65;9.90;;;9.60;83.80;;;;;;10984720;32;20018;-74
2022/11/21 08:05:43;;;;;;;11.80;9.38;;;9.60;84.20;;;;;;10980377;32;20023;-74
2022/11/21 08:11:47;;;;;;;14.52;8.98;;;9.70;84.20;;;;;;10971074;32;20060;-74
2022/11/21 08:17:49;;;;;;;10.23;8.30;;;9.90;84.50;;;;;;10984026;32;20049;-74
2022/11/21 08:23:51;;;;;;;13.77;9.93;;;10.20;84.50;;;;;;10984123;32;20019;-74
2022/11/21 08:29:53;;;;;;;13.48;8.75;;;10.30;84.30;;;;;;10983806;32;20077;-75
2022/11/21 08:35:56;;;;;;;11.98;9.10;;;10.40;84.60;;;;;;10983545;32;20026;-75
2022/11/21 08:42:04;;;;;;;10.57;7.85;;;10.50;84.70;;;;;;10983447;32;20031;-75
2022/11/21 08:48:10;;;;;;;10.60;6.37;;;10.50;84.70;;;;;;10982849;32;20022;-74
2022/11/21 08:54:13;;;;;;;12.82;7.20;;;10.10;85.00;;;;;;10982835;32;20084;-74
2022/11/21 09:00:15;;;;;;;9.93;6.78;;;9.80;85.40;;;;;;10978136;32;20023;-74
2022/11/21 09:06:38;;;;;;;9.27;5.60;;;9.70;85.60;;;;;;10982503;32;20045;-75
2022/11/21 09:12:40;;;;;;;8.63;5.47;;;9.70;85.50;;;;;;10982126;32;20045;-74
2022/11/21 09:18:42;;;;;;;14.45;9.77;;;9.60;85.60;;;;;;10981860;32;20023;-74
2022/11/21 09:24:44;;;;;;;8.40;5.20;;;9.70;85.80;;;;;;10979219;32;20320;-73
2022/11/21 09:30:46;;;;;;;8.68;5.40;;;9.60;85.40;;;;;;10981425;32;20076;-73
2022/11/21 09:37:07;;;;;;;8.35;5.25;;;9.70;85.80;;;;;;10982650;32;20046;-73
2022/11/21 09:43:24;;;;;;;13.45;7.12;;;10.00;86.10;;;;;;10981137;32;20034;-73
2022/11/21 09:49:27;;;;;;;8.80;6.05;;;10.20;86.10;;;;;;10980733;32;20045;-73
2022/11/21 09:56:02;;;;;;;8.75;6.28;;;10.30;86.00;;;;;;10979756;32;20041;-73
2022/11/21 10:02:15;;;;;;;8.77;6.20;;;10.40;86.20;;;;;;10978396;32;20041;-74
2022/11/21 10:08:29;;;;;;;8.00;4.87;;;10.60;85.90;;;;;;10979398;32;20027;-73
2022/11/21 10:14:52;;;;;;;7.37;5.28;;;10.50;85.80;;;;;;10979849;32;20390;-73
2022/11/21 10:21:31;;;;;;;4.30;3.17;;;10.60;86.10;;;;;;10979739;32;20041;-73
2022/11/21 10:27:46;;;;;;;8.10;4.18;;;10.80;85.90;;;;;;10979470;32;20050;-73
2022/11/21 10:34:14;;;;;;;6.57;4.30;;;11.00;86.30;;;;;;10965657;32;20042;-74
2022/11/21 10:40:41;;;;;;;5.73;3.57;;;11.30;86.30;;;;;;10979253;32;20031;-76
2022/11/21 10:47:00;;;;;;;6.78;4.65;;;11.30;85.80;;;;;;10978846;32;20395;-74
2022/11/21 10:59:30;;;;;;;5.35;3.10;;;11.50;85.80;;;;;;10979016;32;20053;-75
2022/11/21 11:05:33;;;;;;;4.62;2.72;;;11.80;85.80;;;;;;10978923;32;20014;-73
2022/11/21 11:11:35;;;;;;;3.92;2.50;;;12.10;85.70;;;;;;10978767;32;20031;-75
2022/11/21 11:17:37;;;;;;;13.23;5.47;;;12.30;85.00;;;;;;10978958;32;20399;-75
2022/11/21 11:23:40;;;;;;;9.38;3.87;;;12.30;85.00;;;;;;10986023;32;20026;-75
2022/11/21 11:29:50;;;;;;;6.82;4.70;;;12.40;85.20;;;;;;10984776;32;20517;-75
2022/11/21 11:35:55;;;;;;;8.70;4.40;;;12.40;85.30;;;;;;10985734;32;20069;-75
2022/11/21 11:48:21;;;;;;;8.35;5.32;;;12.40;85.20;;;;;;10985330;32;20031;-74
2022/11/21 11:54:31;;;;;;;8.90;6.22;;;12.30;85.10;;;;;;10985075;32;20062;-75
2022/11/21 12:00:44;;;;;;;9.07;5.30;;;12.20;85.30;;;;;;10971567;32;20080;-74
2022/11/21 12:07:21;;;;;;;11.48;6.32;;;12.30;85.50;;;;;;10984607;32;20023;-74
2022/11/21 12:13:25;;;;;;;16.62;11.63;;;12.40;85.30;;;;;;10957945;32;20147;-75
2022/11/21 12:19:27;;;;;;;18.15;12.13;;;12.40;86.10;;;;;;10981510;32;20041;-75
2022/11/21 12:25:35;;;;;;;14.95;8.75;;;12.40;86.30;;;;;;10983993;32;20108;-75
2022/11/21 12:31:46;;;;;;;13.35;9.55;;;12.50;86.30;;;;;;10983284;32;20053;-75
2022/11/21 12:38:12;;;;;;;13.05;9.20;;;12.50;86.50;;;;;;10983692;32;20022;-75
2022/11/21 12:44:57;;;;;;;12.93;8.18;;;12.50;86.70;;;;;;10983254;32;20030;-75
2022/11/21 12:58:16;;;;;;;12.00;8.88;;;12.70;86.70;;;;;;10984131;32;20030;-75
2022/11/21 13:04:26;;;;;;;18.35;11.38;;;12.80;86.90;;;;;;10982730;32;20053;-75
2022/11/21 13:10:30;;;;;;;15.45;10.60;;;12.80;87.00;;;;;;10977833;32;20056;-75
2022/11/21 13:16:38;;;;;;;15.13;9.90;;;12.80;86.60;;;;;;10982164;32;20031;-75
2022/11/21 13:22:40;;;;;;;16.10;10.47;;;12.70;87.10;;;;;;10968415;32;20327;-75
2022/11/21 13:28:45;;;;;;;12.15;8.02;;;12.70;87.00;;;;;;10981710;32;20207;-75
2022/11/21 13:34:47;;;;;;;17.83;12.13;;;12.60;87.60;;;;;;10964518;32;20018;-75
2022/11/21 13:47:25;;;;;;;13.23;8.48;;;12.60;88.00;;;;;;10980467;32;20041;-75
2022/11/21 13:54:01;;;;;;;13.02;9.05;;;12.60;87.90;;;;;;10980860;32;20018;-75
2022/11/21 14:00:21;;;;;;;13.40;8.85;;;12.70;88.00;;;;;;10965326;32;20476;-74
2022/11/21 14:06:43;;;;;;;14.57;7.18;;;12.80;88.00;;;;;;10897762;32;20077;-74
2022/11/21 14:12:48;;;;;;;16.20;10.32;;;12.80;87.90;;;;;;10897126;32;20027;-74
2022/11/21 14:18:52;;;;;;;15.90;9.20;;;13.00;88.00;;;;;;10900574;32;20035;-74
2022/11/21 14:24:58;;;;;;;15.63;9.50;;;13.00;88.00;;;;;;10897136;32;20023;-74
2022/11/21 14:31:08;;;;;;;13.85;8.35;;;13.00;88.00;;;;;;10889711;32;20057;-74
2022/11/21 14:37:12;;;;;;;15.45;9.80;;;12.90;88.20;;;;;;10930997;32;20030;-74
2022/11/21 14:43:30;;;;;;;12.85;8.85;;;12.80;88.30;;;;;;10924644;32;20023;-74
2022/11/21 14:49:32;;;;;;;11.30;7.07;;;12.70;88.40;;;;;;11004923;27;20034;-74
2022/11/21 14:55:34;;;;;;;13.00;9.98;;;12.60;88.60;;;;;;11020364;32;20390;-74
2022/11/21 15:01:37;;;;;;;12.07;6.75;;;12.60;88.60;;;;;;11025122;32;20310;-74
2022/11/21 15:07:44;;;;;;;15.13;11.18;;;12.50;88.60;;;;;;11020342;32;20030;-74
2022/11/21 15:13:50;;;;;;;12.05;6.53;;;12.40;88.60;;;;;;11024752;32;20432;-74
2022/11/21 15:20:06;;;;;;;10.73;6.10;;;12.30;88.90;;;;;;11010939;32;20045;-72
2022/11/21 15:26:28;;;;;;;10.80;6.07;;;12.30;88.90;;;;;;11020162;32;20022;-73
2022/11/21 15:32:30;;;;;;;10.05;5.65;;;12.20;88.70;;;;;;11024113;32;20026;-73
2022/11/21 15:38:43;;;;;;;9.15;5.28;;;12.20;88.60;;;;;;11007485;32;20056;-72
2022/11/21 15:45:14;;;;;;;9.98;6.65;;;12.10;88.60;;;;;;10983618;32;20342;-73
2022/11/21 15:51:19;;;;;;;12.90;8.88;;;12.20;88.50;;;;;;10981635;32;20038;-73
2022/11/21 15:57:21;;;;;;;10.73;7.40;;;12.10;88.60;;;;;;10985938;32;20300;-72
2022/11/21 16:03:23;;;;;;;9.25;6.43;;;11.90;88.40;;;;;;10984076;32;20045;-72
2022/11/21 16:09:25;;;;;;;9.55;6.20;;;11.90;88.40;;;;;;10983922;32;20031;-72
2022/11/21 16:15:27;;;;;;;10.20;7.90;;;11.70;88.30;;;;;;10984537;32;20049;-74
2022/11/21 16:21:29;;;;;;;10.40;7.37;;;11.70;88.50;;;;;;10984330;32;20407;-75
2022/11/21 16:27:31;;;;;;;10.70;7.68;;;11.70;88.40;;;;;;10984112;32;20052;-75
2022/11/21 16:33:34;;;;;;;11.65;9.38;;;11.70;88.30;;;;;;10983799;32;20031;-74
2022/11/21 16:39:37;;;;;;;12.13;8.73;;;11.70;88.20;;;;;;10983352;32;20091;-75
2022/11/21 16:45:39;;;;;;;9.70;6.70;;;11.70;88.20;;;;;;10967820;32;20319;-74
2022/11/21 16:51:41;;;;;;;9.63;6.32;;;11.60;88.20;;;;;;10983148;32;20045;-74
2022/11/21 16:57:43;;;;;;;12.02;8.23;;;11.60;88.00;;;;;;10982926;32;20046;-74
2022/11/21 17:03:47;;;;;;;11.52;8.65;;;11.50;87.80;;;;;;10982829;32;20437;-74
2022/11/21 17:09:50;;;;;;;15.18;9.32;;;11.60;87.90;;;;;;10982449;32;20057;-74
2022/11/21 17:15:52;;;;;;;14.23;9.27;;;11.50;87.80;;;;;;10981778;32;20382;-74
2022/11/21 17:21:55;;;;;;;15.82;9.77;;;11.50;87.90;;;;;;10981583;32;20062;-72
2022/11/21 17:27:57;;;;;;;17.92;12.73;;;11.50;88.00;;;;;;10982158;32;20030;-72
2022/11/21 17:34:01;;;;;;;14.95;11.00;;;11.50;88.10;;;;;;10981507;32;20034;-74
2022/11/21 17:40:09;;;;;;;18.48;12.35;;;11.40;88.20;;;;;;10981525;32;20027;-74
2022/11/21 17:46:17;;;;;;;17.65;12.27;;;11.40;88.20;;;;;;10980361;32;20394;-74
2022/11/21 17:52:20;;;;;;;17.52;12.73;;;11.20;88.20;;;;;;10968128;32;20053;-73
2022/11/21 17:58:23;;;;;;;15.32;11.40;;;11.10;88.20;;;;;;10979780;32;20026;-74
2022/11/21 18:04:26;;;;;;;15.90;12.57;;;11.10;88.30;;;;;;10980617;32;20030;-74
2022/11/21 18:10:29;;;;;;;14.95;10.95;;;11.10;88.30;;;;;;10979149;32;20022;-74
2022/11/21 18:16:33;;;;;;;17.08;12.25;;;11.00;88.10;;;;;;10966794;32;20421;-74
2022/11/21 18:22:35;;;;;;;15.27;11.27;;;10.90;88.20;;;;;;10979801;32;20018;-74
2022/11/21 18:28:38;;;;;;;12.68;11.23;;;10.90;88.10;;;;;;10979435;32;20023;-74
2022/11/21 18:34:40;;;;;;;19.77;14.68;;;10.80;88.10;;;;;;10979838;32;20022;-74
2022/11/21 18:40:42;;;;;;;21.62;16.83;;;10.70;88.40;;;;;;10975585;32;20023;-74
2022/11/21 18:46:44;;;;;;;19.92;13.95;;;10.90;88.40;;;;;;10966075;32;20081;-74
2022/11/21 18:52:48;;;;;;;19.65;14.00;;;11.00;88.10;;;;;;10979468;32;20069;-75
2022/11/21 18:58:51;;;;;;;22.65;16.87;;;11.00;88.00;;;;;;10978804;32;20041;-74
2022/11/21 19:04:54;;;;;;;17.85;14.82;;;11.00;88.00;;;;;;10978970;32;20042;-74
2022/11/21 19:11:04;;;;;;;17.62;13.40;;;11.00;87.90;;;;;;10978707;32;20035;-75
2022/11/21 19:17:20;;;;;;;16.67;14.02;;;10.90;88.10;;;;;;10978292;32;20023;-75
2022/11/21 19:23:22;;;;;;;16.05;13.40;;;10.90;88.20;;;;;;10978814;32;20064;-75
2022/11/21 19:29:24;;;;;;;19.95;16.75;;;10.90;88.20;;;;;;10965033;32;20422;-74
2022/11/21 19:35:26;;;;;;;16.12;12.02;;;10.90;88.20;;;;;;10978601;32;20026;-74
2022/11/21 19:41:29;;;;;;;18.48;11.77;;;11.00;88.20;;;;;;10981908;32;20018;-74
2022/11/21 19:47:32;;;;;;;18.37;13.18;;;11.00;88.20;;;;;;10985186;32;20065;-74
2022/11/21 19:53:37;;;;;;;19.83;13.62;;;11.00;88.30;;;;;;10984918;32;20038;-74
2022/11/21 19:59:44;;;;;;;17.95;12.25;;;11.00;88.50;;;;;;10984923;32;20070;-74
2022/11/21 20:05:46;;;;;;;22.15;16.08;;;11.10;88.30;;;;;;10984744;32;20041;-74
2022/11/21 20:11:57;;;;;;;15.00;9.98;;;11.00;88.20;;;;;;10984374;32;20072;-74
2022/11/21 20:18:00;;;;;;;12.32;8.95;;;10.90;88.50;;;;;;10984320;32;20019;-74
2022/11/21 20:24:04;;;;;;;13.90;10.20;;;10.90;88.50;;;;;;10984083;32;20026;-75
2022/11/21 20:30:08;;;;;;;17.37;12.15;;;10.90;88.40;;;;;;10983689;32;20034;-75
2022/11/21 20:36:18;;;;;;;17.92;11.73;;;10.80;88.40;;;;;;10983683;32;20059;-74
2022/11/21 20:42:20;;;;;;;20.62;14.02;;;10.90;88.30;;;;;;10970099;32;20018;-74
2022/11/21 20:48:22;;;;;;;16.15;12.25;;;11.00;88.50;;;;;;10983071;32;20023;-74
2022/11/21 20:55:05;;;;;;;15.80;12.20;;;10.90;88.70;;;;;;10993360;32;20057;-74
2022/11/21 21:01:11;;;;;;;20.88;10.90;;;10.80;88.60;;;;;;10983364;32;20406;-74
2022/11/21 21:07:15;;;;;;;20.35;14.55;;;10.80;88.60;;;;;;10982595;32;20050;-74
2022/11/21 21:13:18;;;;;;;14.98;11.68;;;10.60;88.00;;;;;;10980198;32;20035;-75
2022/11/21 21:19:20;;;;;;;21.42;11.40;;;10.60;88.60;;;;;;10982228;32;20027;-74
2022/11/21 21:25:23;;;;;;;16.50;12.25;;;10.60;88.70;;;;;;10977788;32;20049;-74
2022/11/21 21:31:25;;;;;;;14.18;11.12;;;10.70;88.40;;;;;;10977521;32;20092;-75
2022/11/21 21:37:27;;;;;;;13.82;9.80;;;10.60;88.50;;;;;;10981581;32;20424;-76
2022/11/21 21:43:31;;;;;;;14.27;10.43;;;10.70;88.60;;;;;;10981500;32;20354;-77
2022/11/21 21:49:33;;;;;;;10.90;9.18;;;10.70;88.60;;;;;;11011682;32;20026;-75
2022/11/21 21:55:35;;;;;;;14.35;11.43;;;10.60;88.60;;;;;;11019232;32;20311;-75
2022/11/21 22:01:37;;;;;;;11.43;8.85;;;10.50;88.90;;;;;;11019021;32;20019;-76
2022/11/21 22:07:40;;;;;;;13.52;10.15;;;10.40;89.00;;;;;;11018162;32;20060;-76
2022/11/21 22:13:44;;;;;;;12.15;9.15;;;10.40;89.00;;;;;;11018453;32;20030;-77
2022/11/21 22:19:46;;;;;;;15.05;8.80;;;10.50;89.00;;;;;;11018360;32;20052;-75
2022/11/21 22:25:49;;;;;;;11.50;8.55;;;10.50;88.90;;;;;;11018191;32;20026;-76
2022/11/21 22:31:51;;;;;;;12.70;8.90;;;10.30;88.70;;;;;;11017014;32;20420;-74
2022/11/21 22:37:53;;;;;;;16.00;13.73;;;10.30;89.00;;;;;;11017143;32;20026;-74
2022/11/21 22:43:57;;;;;;;14.65;10.55;;;10.10;88.20;;;;;;11017887;32;20049;-73
2022/11/21 22:49:59;;;;;;;12.10;8.25;;;9.80;88.30;;;;;;11053154;26;20026;-74
2022/11/21 22:56:17;;;;;;;13.07;8.27;;;9.80;89.00;;;;;;11055848;32;20044;-73
2022/11/21 23:02:19;;;;;;;15.90;10.35;;;10.00;89.10;;;;;;11054838;32;20026;-73
2022/11/21 23:08:21;;;;;;;11.10;7.93;;;10.10;89.00;;;;;;11055713;32;20333;-73
2022/11/21 23:14:23;;;;;;;11.15;6.95;;;10.10;89.00;;;;;;11056833;32;20030;-73
2022/11/21 23:20:31;;;;;;;14.30;10.55;;;10.20;89.10;;;;;;11063131;32;20065;-73
2022/11/21 23:26:33;;;;;;;10.48;8.15;;;10.10;89.00;;;;;;11060514;32;20048;-73
2022/11/21 23:32:35;;;;;;;11.23;7.53;;;9.90;88.80;;;;;;11062775;32;20092;-73
2022/11/21 23:38:38;;;;;;;14.48;9.57;;;9.90;89.10;;;;;;11062544;32;20019;-73
2022/11/21 23:44:40;;;;;;;10.10;7.43;;;9.90;89.30;;;;;;11062264;32;20022;-73
2022/11/21 23:50:42;;;;;;;10.20;6.20;;;9.90;89.30;;;;;;11061991;32;20048;-73
2022/11/21 23:56:45;;;;;;;12.40;8.82;;;10.10;89.40;;;;;;11061815;32;20030;-74
